createdAt,value
2022-09-20T00:01:23.217Z,97978.41
2022-09-20T00:03:53.364Z,97965.41
2022-09-20T00:06:24.371Z,97977.03
2022-09-20T00:08:53.171Z,97975.34
2022-09-20T00:11:22.958Z,97978.72
2022-09-20T00:13:53.224Z,97977.56
2022-09-20T00:16:23.232Z,97979.69
2022-09-20T00:18:51.677Z,97984.75
2022-09-20T00:21:23.392Z,97984.41
2022-09-20T00:23:52.657Z,97982.16
2022-09-20T00:26:21.269Z,97981.00
2022-09-20T00:28:49.592Z,97980.56
2022-09-20T00:31:17.938Z,97971.44
2022-09-20T00:34:04.039Z,97978.75
2022-09-20T00:36:36.072Z,97970.06
2022-09-20T00:39:05.279Z,97968.81
2022-09-20T00:41:34.149Z,97973.03
2022-09-20T00:44:03.953Z,97973.09
2022-09-20T00:46:36.631Z,97978.38
2022-09-20T00:49:07.889Z,97980.34
2022-09-20T00:51:39.849Z,97978.22
2022-09-20T00:54:09.042Z,97979.06
2022-09-20T00:56:39.163Z,97984.91
2022-09-20T00:59:12.511Z,97981.16
2022-09-20T01:01:40.760Z,97985.56
2022-09-20T01:04:09.285Z,97990.75
2022-09-20T01:06:38.763Z,97989.59
2022-09-20T01:09:08.097Z,97981.97
2022-09-20T01:11:36.622Z,97985.41
2022-09-20T01:14:04.969Z,97984.59
2022-09-20T01:16:34.261Z,97988.66
2022-09-20T01:19:05.349Z,97988.13
2022-09-20T01:21:33.820Z,97991.72
2022-09-20T01:24:07.482Z,97989.25
2022-09-20T01:26:55.883Z,97994.94
2022-09-20T01:29:40.313Z,97994.41
2022-09-20T01:32:12.773Z,97989.41
2022-09-20T01:34:47.307Z,97994.75
2022-09-20T01:37:21.246Z,97993.16
2022-09-20T01:39:55.726Z,97988.59
2022-09-20T01:42:26.877Z,98003.06
2022-09-20T01:44:57.919Z,97997.25
2022-09-20T01:47:36.667Z,97999.78
2022-09-20T01:50:13.326Z,97990.38
2022-09-20T01:53:16.201Z,97981.72
2022-09-20T01:56:22.794Z,97984.97
2022-09-20T01:59:24.072Z,97985.44
2022-09-20T02:02:12.868Z,97984.78
2022-09-20T02:05:00.852Z,97984.97
2022-09-20T02:07:52.475Z,97992.63
2022-09-20T02:10:47.259Z,97994.41
2022-09-20T02:13:29.943Z,97986.94
2022-09-20T02:16:17.612Z,97994.56
2022-09-20T02:19:01.435Z,97992.00
2022-09-20T02:21:31.825Z,97997.72
2022-09-20T02:24:06.119Z,98001.09
2022-09-20T02:26:40.416Z,97992.31
2022-09-20T02:29:17.586Z,97992.94
2022-09-20T02:32:04.236Z,97999.13
2022-09-20T02:34:56.903Z,98004.00
2022-09-20T02:37:55.540Z,98002.53
2022-09-20T02:40:37.940Z,98000.59
2022-09-20T02:43:12.040Z,98001.28
2022-09-20T02:45:45.572Z,98005.84
2022-09-20T02:48:16.502Z,98006.16
2022-09-20T02:50:52.515Z,98004.66
2022-09-20T02:53:32.029Z,98015.56
2022-09-20T02:56:04.780Z,98008.59
2022-09-20T02:58:41.447Z,98016.06
2022-09-20T03:01:17.091Z,98015.88
2022-09-20T03:03:52.012Z,98015.72
2022-09-20T03:06:28.788Z,98013.31
2022-09-20T03:09:02.394Z,98010.22
2022-09-20T03:11:34.419Z,98010.38
2022-09-20T03:14:09.960Z,98011.88
2022-09-20T03:16:51.410Z,98014.78
2022-09-20T03:19:33.588Z,98021.75
2022-09-20T03:22:05.483Z,98023.28
2022-09-20T03:24:43.183Z,98022.38
2022-09-20T03:27:17.840Z,98025.31
2022-09-20T03:29:59.583Z,98030.34
2022-09-20T03:32:39.759Z,98027.25
2022-09-20T03:35:22.511Z,98028.69
2022-09-20T03:38:05.142Z,98031.47
2022-09-20T03:40:57.568Z,98032.28
2022-09-20T03:43:36.358Z,98032.44
2022-09-20T03:46:14.404Z,98035.06
2022-09-20T03:49:10.350Z,98039.28
2022-09-20T03:51:45.713Z,98032.47
2022-09-20T03:54:43.137Z,98037.13
2022-09-20T03:57:28.353Z,98039.25
2022-09-20T04:00:07.802Z,98033.75
2022-09-20T04:02:52.501Z,98038.78
2022-09-20T04:05:25.182Z,98039.91
2022-09-20T04:08:02.206Z,98043.00
2022-09-20T04:10:47.070Z,98049.00
2022-09-20T04:13:25.444Z,98050.16
2022-09-20T04:16:03.391Z,98052.59
2022-09-20T04:18:35.331Z,98054.69
2022-09-20T04:21:06.489Z,98059.09
2022-09-20T04:23:41.698Z,98056.66
2022-09-20T04:26:11.812Z,98061.53
2022-09-20T04:28:44.646Z,98057.47
2022-09-20T04:31:20.939Z,98062.66
2022-09-20T04:33:51.617Z,98066.06
2022-09-20T04:36:37.223Z,98063.81
2022-09-20T04:39:15.957Z,98075.16
2022-09-20T04:42:12.633Z,98059.25
2022-09-20T04:45:11.205Z,98069.31
2022-09-20T04:48:17.971Z,98070.75
2022-09-20T04:51:10.081Z,98069.47
2022-09-20T04:54:13.971Z,98070.94
2022-09-20T04:56:54.044Z,98076.47
2022-09-20T04:59:29.187Z,98075.16
2022-09-20T05:02:48.789Z,98064.31
2022-09-20T05:05:43.636Z,98078.41
2022-09-20T05:08:41.347Z,98082.13
2022-09-20T05:11:33.650Z,98085.53
2022-09-20T05:14:23.117Z,98085.06
2022-09-20T05:17:06.346Z,98097.88
2022-09-20T05:19:41.490Z,98087.47
2022-09-20T05:22:22.593Z,98093.66
2022-09-20T05:25:27.370Z,98105.50
2022-09-20T05:28:00.175Z,98089.28
2022-09-20T05:30:38.150Z,98098.22
2022-09-20T05:33:16.199Z,98104.41
2022-09-20T05:35:50.286Z,98101.44
2022-09-20T05:38:24.115Z,98099.50
2022-09-20T05:41:06.862Z,98097.13
2022-09-20T05:43:36.733Z,98099.84
2022-09-20T05:46:15.602Z,98098.88
2022-09-20T05:48:54.572Z,98102.25
2022-09-20T05:51:37.036Z,98102.81
2022-09-20T05:54:32.517Z,98102.78
2022-09-20T05:57:12.336Z,98113.53
2022-09-20T05:59:52.938Z,98104.59
2022-09-20T06:02:32.174Z,98110.59
2022-09-20T06:05:04.784Z,98110.13
2022-09-20T06:07:46.236Z,98110.94
2022-09-20T06:10:26.548Z,98110.09
2022-09-20T06:12:59.492Z,98122.22
2022-09-20T06:15:30.682Z,98125.31
2022-09-20T06:18:15.172Z,98123.34
2022-09-20T06:20:49.879Z,98124.47
2022-09-20T06:23:18.938Z,98126.63
2022-09-20T06:25:56.272Z,98128.34
2022-09-20T06:28:26.467Z,98124.47
2022-09-20T06:30:57.332Z,98120.88
2022-09-20T06:33:28.468Z,98132.09
2022-09-20T06:36:22.411Z,98123.59
2022-09-20T06:39:15.107Z,98129.63
2022-09-20T06:41:44.376Z,98131.00
2022-09-20T06:44:12.489Z,98139.00
2022-09-20T06:46:41.770Z,98142.88
2022-09-20T06:49:11.685Z,98136.16
2022-09-20T06:51:41.535Z,98143.81
2022-09-20T06:54:17.427Z,98146.78
2022-09-20T06:56:46.939Z,98155.66
2022-09-20T06:59:15.470Z,98147.88
2022-09-20T07:01:44.812Z,98149.59
2022-09-20T07:04:14.699Z,98154.97
2022-09-20T07:06:42.942Z,98155.22
2022-09-20T07:09:12.598Z,98153.22
2022-09-20T07:11:40.876Z,98163.03
2022-09-20T07:14:09.549Z,98164.03
2022-09-20T07:16:38.094Z,98171.34
2022-09-20T07:19:06.707Z,98165.97
2022-09-20T07:21:36.213Z,98172.47
2022-09-20T07:24:04.465Z,98167.94
2022-09-20T07:26:33.668Z,98178.16
2022-09-20T07:29:02.452Z,98179.78
2022-09-20T07:31:31.278Z,98176.69
2022-09-20T07:33:59.622Z,98180.28
2022-09-20T07:36:29.380Z,98190.19
2022-09-20T07:38:59.022Z,98182.97
2022-09-20T07:41:32.592Z,98191.47
2022-09-20T07:44:20.689Z,98188.69
2022-09-20T07:46:49.531Z,98190.78
2022-09-20T07:49:17.716Z,98192.25
2022-09-20T07:51:46.068Z,98198.25
2022-09-20T07:54:16.244Z,98210.59
2022-09-20T07:56:44.894Z,98207.84
2022-09-20T07:59:13.730Z,98213.41
2022-09-20T08:01:42.814Z,98217.91
2022-09-20T08:04:11.712Z,98211.75
2022-09-20T08:06:40.941Z,98209.97
2022-09-20T08:09:11.296Z,98218.91
2022-09-20T08:11:41.806Z,98212.06
2022-09-20T08:14:14.457Z,98212.53
2022-09-20T08:16:44.877Z,98210.81
2022-09-20T08:19:16.757Z,98209.56
2022-09-20T08:21:45.196Z,98208.03
2022-09-20T08:24:13.276Z,98213.78
2022-09-20T08:26:43.714Z,98217.25
2022-09-20T08:29:12.278Z,98217.81
2022-09-20T08:31:42.702Z,98222.47
2022-09-20T08:34:13.067Z,98219.47
2022-09-20T08:36:42.607Z,98216.34
2022-09-20T08:42:08.974Z,98217.97
2022-09-20T08:44:45.831Z,98222.78
2022-09-20T08:47:19.499Z,98224.63
2022-09-20T08:49:47.707Z,98224.25
2022-09-20T08:52:18.158Z,98224.25
2022-09-20T08:54:47.023Z,98236.94
2022-09-20T08:57:18.578Z,98227.63
2022-09-20T08:59:46.860Z,98230.72
2022-09-20T09:02:18.245Z,98224.91
2022-09-20T09:04:46.528Z,98237.25
2022-09-20T09:07:16.456Z,98230.88
2022-09-20T09:09:46.754Z,98232.06
2022-09-20T09:12:23.249Z,98235.78
2022-09-20T09:14:55.222Z,98233.06
2022-09-20T09:17:28.460Z,98232.63
2022-09-20T09:19:58.301Z,98235.53
2022-09-20T09:22:32.249Z,98235.63
2022-09-20T09:25:26.905Z,98234.94
2022-09-20T09:27:58.505Z,98234.00
2022-09-20T09:30:29.396Z,98232.25
2022-09-20T09:33:28.027Z,98237.00
2022-09-20T09:35:59.456Z,98230.41
2022-09-20T09:38:29.994Z,98229.56
2022-09-20T09:40:59.388Z,98234.78
2022-09-20T09:43:30.412Z,98229.34
2022-09-20T09:46:18.469Z,98236.91
2022-09-20T09:48:50.066Z,98238.72
2022-09-20T09:51:20.227Z,98231.66
2022-09-20T09:53:49.479Z,98237.53
2022-09-20T09:56:28.369Z,98234.16
2022-09-20T09:59:10.724Z,98220.53
2022-09-20T10:01:42.848Z,98226.25
2022-09-20T10:04:15.395Z,98225.63
2022-09-20T10:06:52.262Z,98216.38
2022-09-20T10:09:30.493Z,98223.97
2022-09-20T10:12:11.867Z,98223.28
2022-09-20T10:14:46.443Z,98216.38
2022-09-20T10:17:35.212Z,98216.97
2022-09-20T10:20:15.397Z,98215.44
2022-09-20T10:23:21.434Z,98211.88
2022-09-20T10:25:43.306Z,98207.38
2022-09-20T10:28:25.744Z,98215.09
2022-09-20T10:31:05.582Z,98204.13
2022-09-20T10:33:37.854Z,98204.72
2022-09-20T10:36:14.116Z,98208.03
2022-09-20T10:38:47.158Z,98199.53
2022-09-20T10:41:42.070Z,98199.91
2022-09-20T10:44:16.697Z,98194.53
2022-09-20T10:46:54.973Z,98201.75
2022-09-20T10:49:29.738Z,98207.72
2022-09-20T10:52:22.176Z,98222.47
2022-09-20T10:55:03.797Z,98220.06
2022-09-20T10:57:50.015Z,98224.47
2022-09-20T11:00:22.363Z,98219.00
2022-09-20T11:03:13.361Z,98227.75
2022-09-20T11:05:46.567Z,98223.72
2022-09-20T11:08:19.036Z,98222.97
2022-09-20T11:10:50.137Z,98222.06
2022-09-20T11:13:21.390Z,98212.91
2022-09-20T11:15:54.595Z,98227.16
2022-09-20T11:18:28.331Z,98221.22
2022-09-20T11:21:01.690Z,98218.16
2022-09-20T11:23:35.166Z,98221.25
2022-09-20T11:26:09.650Z,98217.34
2022-09-20T11:28:41.786Z,98220.16
2022-09-20T11:31:13.004Z,98211.41
2022-09-20T11:33:46.195Z,98208.59
2022-09-20T11:36:17.672Z,98215.41
2022-09-20T11:38:53.252Z,98215.09
2022-09-20T11:41:26.064Z,98221.63
2022-09-20T11:43:57.511Z,98209.09
2022-09-20T11:46:28.317Z,98210.25
2022-09-20T11:49:02.537Z,98207.88
2022-09-20T11:51:54.684Z,98206.50
2022-09-20T11:55:04.644Z,98203.84
2022-09-20T11:57:33.453Z,98204.13
2022-09-20T12:00:04.291Z,98199.34
2022-09-20T12:02:35.741Z,98206.00
2022-09-20T12:05:07.102Z,98197.69
2022-09-20T12:07:38.133Z,98200.81
2022-09-20T12:10:09.592Z,98199.41
2022-09-20T12:12:41.685Z,98204.53
2022-09-20T12:15:25.024Z,98198.44
2022-09-20T12:18:25.874Z,98200.94
2022-09-20T12:21:16.131Z,98202.72
2022-09-20T12:24:23.570Z,98203.19
2022-09-20T12:27:00.206Z,98206.75
2022-09-20T12:30:09.481Z,98211.19
2022-09-20T12:32:47.292Z,98192.47
2022-09-20T12:36:00.715Z,98205.66
2022-09-20T12:38:40.077Z,98204.38
2022-09-20T12:41:16.884Z,98204.09
2022-09-20T12:44:01.246Z,98197.25
2022-09-20T12:46:34.134Z,98197.03
2022-09-20T12:49:41.618Z,98196.28
2022-09-20T12:52:49.890Z,98201.03
2022-09-20T12:55:32.987Z,98197.38
2022-09-20T12:58:03.691Z,98199.00
2022-09-20T13:00:38.469Z,98198.44
2022-09-20T13:03:23.259Z,98198.63
2022-09-20T13:05:53.140Z,98201.75
2022-09-20T13:08:24.446Z,98196.53
2022-09-20T13:11:02.298Z,98196.00
2022-09-20T13:13:33.712Z,98195.28
2022-09-20T13:16:05.765Z,98204.47
2022-09-20T13:18:35.845Z,98196.47
2022-09-20T13:21:07.139Z,98195.91
2022-09-20T13:23:46.628Z,98206.50
2022-09-20T13:26:17.083Z,98201.44
2022-09-20T13:28:49.239Z,98191.03
2022-09-20T13:31:24.457Z,98193.56
2022-09-20T13:33:52.979Z,98198.66
2022-09-20T13:36:27.243Z,98200.53
2022-09-20T13:38:57.971Z,98202.00
2022-09-20T13:41:32.618Z,98197.75
2022-09-20T13:44:01.495Z,98198.66
2022-09-20T13:46:31.512Z,98204.69
2022-09-20T13:49:10.579Z,98206.44
2022-09-20T13:51:38.901Z,98208.81
2022-09-20T13:54:21.956Z,98203.53
2022-09-20T13:56:52.186Z,98206.66
2022-09-20T13:59:20.801Z,98199.91
2022-09-20T14:01:53.179Z,98205.16
2022-09-20T14:04:23.589Z,98210.59
2022-09-20T14:06:54.740Z,98204.69
2022-09-20T14:09:25.135Z,98206.28
2022-09-20T14:11:55.107Z,98200.53
2022-09-20T14:14:24.600Z,98205.63
2022-09-20T14:16:55.060Z,98198.41
2022-09-20T14:19:28.758Z,98200.50
2022-09-20T14:21:58.177Z,98200.84
2022-09-20T14:24:32.014Z,98198.81
2022-09-20T14:27:05.707Z,98201.38
2022-09-20T14:29:41.229Z,98202.72
2022-09-20T14:32:27.500Z,98205.34
2022-09-20T14:35:02.313Z,98205.06
2022-09-20T14:37:33.172Z,98209.22
2022-09-20T14:40:03.698Z,98209.31
2022-09-20T14:42:35.992Z,98211.22
2022-09-20T14:45:05.656Z,98215.69
2022-09-20T14:47:38.830Z,98212.09
2022-09-20T14:50:25.130Z,98219.59
2022-09-20T14:53:08.369Z,98221.69
2022-09-20T14:55:37.997Z,98216.03
2022-09-20T14:58:11.920Z,98223.91
2022-09-20T15:00:51.233Z,98228.06
2022-09-20T15:03:26.448Z,98228.84
2022-09-20T15:05:54.774Z,98227.28
2022-09-20T15:08:23.482Z,98225.88
2022-09-20T15:10:52.062Z,98227.22
2022-09-20T15:13:21.792Z,98222.94
2022-09-20T15:15:52.765Z,98225.84
2022-09-20T15:18:22.885Z,98228.81
2022-09-20T15:20:51.463Z,98236.38
2022-09-20T15:23:20.076Z,98229.03
2022-09-20T15:25:51.296Z,98234.91
2022-09-20T15:28:19.693Z,98229.63
2022-09-20T15:30:51.473Z,98239.88
2022-09-20T15:33:20.557Z,98234.53
2022-09-20T15:35:49.916Z,98242.06
2022-09-20T15:38:18.919Z,98247.25
2022-09-20T15:40:48.586Z,98257.00
2022-09-20T15:43:19.685Z,98250.19
2022-09-20T15:45:51.607Z,98255.97
2022-09-20T15:48:21.625Z,98250.69
2022-09-20T15:51:03.581Z,98258.38
2022-09-20T15:53:35.841Z,98266.09
2022-09-20T15:56:06.857Z,98263.66
2022-09-20T15:58:36.746Z,98258.97
2022-09-20T16:01:08.213Z,98266.72
2022-09-20T16:03:37.451Z,98274.84
2022-09-20T16:06:08.267Z,98269.03
2022-09-20T16:08:38.107Z,98273.56
2022-09-20T16:11:07.296Z,98275.34
2022-09-20T16:13:36.764Z,98277.94
2022-09-20T16:16:08.696Z,98284.72
2022-09-20T16:18:55.771Z,98294.13
2022-09-20T16:21:24.551Z,98288.97
2022-09-20T16:23:54.305Z,98291.19
2022-09-20T16:26:24.186Z,98303.88
2022-09-20T16:28:53.119Z,98304.09
2022-09-20T16:31:34.820Z,98298.03
2022-09-20T16:34:04.175Z,98305.09
2022-09-20T16:36:32.472Z,98302.88
2022-09-20T16:39:01.737Z,98315.25
2022-09-20T16:41:31.117Z,98318.19
2022-09-20T16:43:59.723Z,98315.41
2022-09-20T16:46:28.348Z,98325.00
2022-09-20T16:49:00.993Z,98330.56
2022-09-20T16:51:33.556Z,98335.16
2022-09-20T16:54:05.822Z,98339.34
2022-09-20T16:56:35.920Z,98338.16
2022-09-20T16:59:06.368Z,98343.91
2022-09-20T17:01:37.139Z,98346.53
2022-09-20T17:04:08.414Z,98355.47
2022-09-20T17:06:38.927Z,98349.00
2022-09-20T17:09:08.976Z,98356.16
2022-09-20T17:11:38.944Z,98355.53
2022-09-20T17:14:08.649Z,98362.69
2022-09-20T17:16:39.599Z,98367.75
2022-09-20T17:19:11.687Z,98356.69
2022-09-20T17:21:43.547Z,98372.09
2022-09-20T17:24:12.254Z,98364.59
2022-09-20T17:26:41.826Z,98371.09
2022-09-20T17:29:13.792Z,98360.03
2022-09-20T17:31:44.570Z,98373.03
2022-09-20T17:34:15.734Z,98375.50
2022-09-20T17:36:45.561Z,98378.91
2022-09-20T17:39:15.539Z,98381.19
2022-09-20T17:41:44.961Z,98387.69
2022-09-20T17:44:13.574Z,98397.56
2022-09-20T17:46:42.864Z,98393.69
2022-09-20T17:49:12.337Z,98395.81
2022-09-20T17:51:43.674Z,98393.09
2022-09-20T17:54:14.095Z,98398.09
2022-09-20T17:56:45.859Z,98403.31
2022-09-20T17:59:15.806Z,98403.00
2022-09-20T18:01:44.948Z,98408.03
2022-09-20T18:04:13.711Z,98410.59
2022-09-20T18:06:47.080Z,98421.72
2022-09-20T18:09:16.998Z,98423.28
2022-09-20T18:11:48.901Z,98421.22
2022-09-20T18:14:19.086Z,98419.09
2022-09-20T18:16:47.396Z,98427.84
2022-09-20T18:19:16.396Z,98429.78
2022-09-20T18:21:46.117Z,98425.63
2022-09-20T18:24:14.344Z,98433.03
2022-09-20T18:26:42.871Z,98440.06
2022-09-20T18:29:12.941Z,98450.53
2022-09-20T18:31:43.556Z,98444.63
2022-09-20T18:34:18.576Z,98440.94
2022-09-20T18:36:53.354Z,98444.84
2022-09-20T18:39:22.839Z,98453.22
2022-09-20T18:41:53.560Z,98454.91
2022-09-20T18:44:22.826Z,98448.53
2022-09-20T18:46:54.281Z,98454.22
2022-09-20T18:49:23.058Z,98455.28
2022-09-20T18:51:52.990Z,98465.00
2022-09-20T18:54:21.449Z,98458.41
2022-09-20T18:56:51.426Z,98458.78
2022-09-20T18:59:21.233Z,98463.66
2022-09-20T19:02:09.661Z,98470.25
2022-09-20T19:04:52.449Z,98467.47
2022-09-20T19:07:28.024Z,98468.88
2022-09-20T19:09:59.513Z,98468.66
2022-09-20T19:12:33.020Z,98480.56
2022-09-20T19:15:23.943Z,98480.09
2022-09-20T19:18:02.122Z,98477.53
2022-09-20T19:20:34.124Z,98474.41
2022-09-20T19:23:12.217Z,98476.06
2022-09-20T19:25:44.194Z,98478.41
2022-09-20T19:28:13.773Z,98479.06
2022-09-20T19:30:48.252Z,98485.22
2022-09-20T19:33:18.418Z,98483.75
2022-09-20T19:35:50.761Z,98492.22
2022-09-20T19:38:31.493Z,98488.97
2022-09-20T19:41:04.912Z,98493.28
2022-09-20T19:43:54.150Z,98491.53
2022-09-20T19:46:36.241Z,98485.75
2022-09-20T19:49:10.039Z,98490.69
2022-09-20T19:51:39.641Z,98483.56
2022-09-20T19:54:10.624Z,98494.00
2022-09-20T19:56:48.510Z,98492.94
2022-09-20T19:59:17.822Z,98497.97
2022-09-20T20:01:46.549Z,98500.38
2022-09-20T20:04:15.104Z,98492.34
2022-09-20T20:06:48.549Z,98502.16
2022-09-20T20:09:25.366Z,98504.59
2022-09-20T20:12:00.356Z,98497.41
2022-09-20T20:14:34.217Z,98491.72
2022-09-20T20:17:12.839Z,98490.28
2022-09-20T20:19:51.386Z,98492.03
2022-09-20T20:22:28.538Z,98497.94
2022-09-20T20:24:58.634Z,98482.72
2022-09-20T20:27:28.668Z,98487.00
2022-09-20T20:29:56.937Z,98497.44
2022-09-20T20:32:25.940Z,98496.34
2022-09-20T20:34:54.250Z,98496.34
2022-09-20T20:37:24.463Z,98501.88
2022-09-20T20:39:53.078Z,98510.88
2022-09-20T20:42:22.816Z,98501.00
2022-09-20T20:44:50.851Z,98514.13
2022-09-20T20:47:18.950Z,98514.03
2022-09-20T20:49:51.997Z,98518.53
2022-09-20T20:52:20.671Z,98523.94
2022-09-20T20:54:48.860Z,98516.38
2022-09-20T20:57:19.118Z,98515.94
2022-09-20T20:59:48.691Z,98516.88
2022-09-20T21:02:17.458Z,98524.06
2022-09-20T21:04:46.246Z,98530.38
2022-09-20T21:07:14.381Z,98524.75
2022-09-20T21:09:42.766Z,98520.47
2022-09-20T21:12:10.964Z,98514.22
2022-09-20T21:14:39.282Z,98519.03
2022-09-20T21:17:09.190Z,98512.81
2022-09-20T21:19:37.269Z,98518.28
2022-09-20T21:22:05.568Z,98510.84
2022-09-20T21:24:33.819Z,98514.94
2022-09-20T21:27:02.243Z,98517.97
2022-09-20T21:29:30.356Z,98516.56
2022-09-20T21:31:58.575Z,98514.31
2022-09-20T21:34:27.980Z,98517.09
2022-09-20T21:36:56.040Z,98520.47
2022-09-20T21:39:24.322Z,98515.34
2022-09-20T21:41:52.564Z,98524.44
2022-09-20T21:44:20.639Z,98535.16
2022-09-20T21:46:50.163Z,98532.22
2022-09-20T21:49:18.213Z,98528.75
2022-09-20T21:51:47.650Z,98536.56
2022-09-20T21:54:16.012Z,98538.41
2022-09-20T21:56:44.247Z,98534.47
2022-09-20T21:59:12.227Z,98535.75
2022-09-20T22:01:41.226Z,98546.19
2022-09-20T22:04:10.733Z,98544.97
2022-09-20T22:06:39.896Z,98541.38
2022-09-20T22:09:10.807Z,98545.03
2022-09-20T22:11:40.724Z,98543.53
2022-09-20T22:14:09.555Z,98533.72
2022-09-20T22:16:39.060Z,98536.69
2022-09-20T22:19:10.169Z,98541.28
2022-09-20T22:21:39.225Z,98544.03
2022-09-20T22:24:10.612Z,98543.91
2022-09-20T22:26:39.894Z,98537.66
2022-09-20T22:29:09.496Z,98541.66
2022-09-20T22:31:41.544Z,98548.38
2022-09-20T22:34:09.696Z,98547.34
2022-09-20T22:36:39.975Z,98545.97
2022-09-20T22:39:11.099Z,98542.47
2022-09-20T22:41:41.193Z,98544.38
2022-09-20T22:44:09.887Z,98545.91
2022-09-20T22:46:39.197Z,98545.72
2022-09-20T22:49:08.361Z,98548.97
2022-09-20T22:51:37.384Z,98545.97
2022-09-20T22:54:07.074Z,98538.66
2022-09-20T22:56:37.847Z,98555.72
2022-09-20T22:59:08.051Z,98548.31
2022-09-20T23:01:37.516Z,98543.75
2022-09-20T23:04:07.881Z,98546.28
2022-09-20T23:06:38.227Z,98550.56
2022-09-20T23:09:08.039Z,98554.56
2022-09-20T23:11:37.976Z,98549.53
2022-09-20T23:14:07.559Z,98550.41
2022-09-20T23:16:37.278Z,98554.91
2022-09-20T23:19:07.304Z,98548.03
2022-09-20T23:21:37.275Z,98549.78
2022-09-20T23:24:07.634Z,98551.41
2022-09-20T23:26:38.950Z,98560.06
2022-09-20T23:29:08.990Z,98552.84
2022-09-20T23:31:38.380Z,98551.91
2022-09-20T23:34:08.207Z,98559.81
2022-09-20T23:36:39.159Z,98557.63
2022-09-20T23:39:08.448Z,98566.44
2022-09-20T23:41:38.597Z,98563.50
2022-09-20T23:44:09.851Z,98561.84
2022-09-20T23:46:38.426Z,98571.09
2022-09-20T23:49:09.380Z,98569.25
2022-09-20T23:51:38.267Z,98567.13
2022-09-20T23:54:06.961Z,98567.03
2022-09-20T23:56:35.929Z,98569.03
2022-09-20T23:59:05.994Z,98564.25
